Etusivu
METAR-TAF:

METAR-TAF

Lentoasemat :

Vesisaari, Norja

Leveyspiiri: 70-04N, Pituuspiiri: 029-51E, korkeus merenpinnasta: 3 m

Tämänhetkinen sää

Tämä raportti tehtiin 15 minuuttia sitten, kello 22.50 UTC
Tuuli 18 kn lännestä/luoteesta
Lämpötila 7°C
Kosteus 70%
Ilmanpaine 1022 hPa
Näkyvyys 10 km tai enemmän
Muutamia pilviä 3500 ft:n korkeudessa
sadekuuroja näköpiirissä

METAR: ENVD 242250Z 30018KT 9999 VCSH FEW035 07/02 Q1022

Aika: 01:05 (23:05 UTC)

Sääennuste

Tämä raportti tehtiin 9 tuntia ja 5 minuuttia sitten, kello 14.00 UTC
Ennuste voimassa 24. päivästä klo 15 UTC - 24. päivään klo 23 UTC
Tuuli 10 kn lännestä
Näkyvyys 10 km tai enemmän
Muutamia pilviä 2000 ft:n korkeudessa
Hajonneita pilviä 5000 ft:n korkeudessa
Ajoittain
24. päivästä klo 15 UTC - 24. päivään klo 23 UTC
Tuuli 20 kn lännestä

TAF: ENVD 241400Z 2415/2423 26010KT 9999 FEW020 BKN050 TEMPO 2415/2423 27020KT

Säähavainnot ja -ennusteet yli 4000 lentoasemalta (METAR- ja TAF-raportit).

Käytössä olevat sääasemat on merkitty karttaan keltaisilla ja punaisilla pisteillä.

Aseta hiiri pisteen päälle nähdäksesi sääaseman nimen.

Klikkaa sitten nähdäksesi säähavainnot ja -ennusteet.

Kartan vaihtaminen: klikkaa mustalla rastilla varustettuja vihreitä pisteitä, niin voit zoomata sisään; viivalla varustettua vihreää pistettä, niin voit zoomata ulos tai vihreitä nuolia, niin pääset viereisille kartoille.


METAR-TAF: